Time;durP1;ratioP1;P1;durP2;ratioP2;P2;SDS_P1;SDS_P2;PMS_P1;PMS_P2;Temp;Humidity;BMP_temperature;BMP_pressure;BME280_temperature;BME280_humidity;BME280_pressure;Samples;Min_cycle;Max_cycle;Signal;HPM_P1;HPM_P2
2022/03/03 00:01:36;;;;;;;21.55;15.82;;;;;;;;;;5042378;28;20052;-60
2022/03/03 00:04:02;;;;;;;21.15;16.25;;;;;;;;;;5022784;28;20071;-60
2022/03/03 00:06:27;;;;;;;22.25;16.35;;;;;;;;;;5041121;28;20024;-61
2022/03/03 00:08:52;;;;;;;23.88;15.18;;;;;;;;;;5043144;28;20044;-60
2022/03/03 00:11:18;;;;;;;20.20;14.45;;;;;;;;;;5062128;28;20427;-61
2022/03/03 00:13:43;;;;;;;19.92;15.02;;;;;;;;;;5064648;28;20177;-61
2022/03/03 00:16:08;;;;;;;21.70;15.30;;;;;;;;;;5046383;28;20067;-61
2022/03/03 00:18:34;;;;;;;22.13;16.23;;;;;;;;;;5063186;28;20028;-61
2022/03/03 00:20:59;;;;;;;21.30;16.45;;;;;;;;;;5043621;28;20059;-61
2022/03/03 00:23:25;;;;;;;22.48;15.50;;;;;;;;;;5062953;28;20040;-61
2022/03/03 00:25:50;;;;;;;21.67;15.65;;;;;;;;;;5062620;28;20028;-61
2022/03/03 00:28:16;;;;;;;21.80;15.98;;;;;;;;;;5056815;28;20027;-61
2022/03/03 00:30:41;;;;;;;22.80;15.05;;;;;;;;;;5042909;28;20468;-61
2022/03/03 00:33:07;;;;;;;22.98;15.27;;;;;;;;;;5041802;28;20029;-59
2022/03/03 00:35:32;;;;;;;20.55;15.25;;;;;;;;;;5024471;28;20029;-59
2022/03/03 00:37:57;;;;;;;19.23;14.75;;;;;;;;;;5047671;28;20044;-60
2022/03/03 00:40:23;;;;;;;20.23;15.40;;;;;;;;;;5045076;28;20028;-60
2022/03/03 00:42:48;;;;;;;23.80;15.95;;;;;;;;;;5040376;28;20029;-60
2022/03/03 00:45:13;;;;;;;23.15;16.13;;;;;;;;;;5044103;28;20025;-60
2022/03/03 00:47:39;;;;;;;21.58;15.70;;;;;;;;;;5042670;28;20132;-60
2022/03/03 00:50:05;;;;;;;23.33;16.38;;;;;;;;;;5037752;28;20028;-60
2022/03/03 00:52:30;;;;;;;22.35;15.98;;;;;;;;;;5044077;28;20107;-60
2022/03/03 00:54:55;;;;;;;21.50;15.98;;;;;;;;;;5042344;28;20189;-60
2022/03/03 00:57:20;;;;;;;22.88;16.20;;;;;;;;;;5041331;28;20037;-60
2022/03/03 00:59:46;;;;;;;24.75;16.85;;;;;;;;;;5044721;28;20037;-60
2022/03/03 01:02:11;;;;;;;20.50;15.73;;;;;;;;;;5044776;28;20051;-60
2022/03/03 01:04:36;;;;;;;22.25;15.68;;;;;;;;;;5039115;28;20040;-60
2022/03/03 01:07:02;;;;;;;23.77;16.92;;;;;;;;;;5043159;28;20059;-61
2022/03/03 01:09:27;;;;;;;22.88;16.02;;;;;;;;;;5049581;28;20483;-61
2022/03/03 01:11:52;;;;;;;25.02;15.73;;;;;;;;;;5058806;28;20036;-61
2022/03/03 01:14:21;;;;;;;24.73;16.77;;;;;;;;;;5065208;28;20081;-61
2022/03/03 01:16:47;;;;;;;23.50;17.45;;;;;;;;;;5060875;28;20032;-61
2022/03/03 01:19:12;;;;;;;28.13;16.38;;;;;;;;;;5050552;28;20040;-60
2022/03/03 01:21:37;;;;;;;21.05;15.82;;;;;;;;;;5040851;28;20028;-59
2022/03/03 01:24:03;;;;;;;23.45;16.58;;;;;;;;;;5043334;28;20025;-62
2022/03/03 01:26:28;;;;;;;24.80;16.15;;;;;;;;;;5042634;28;20742;-60
2022/03/03 01:28:53;;;;;;;22.42;16.83;;;;;;;;;;5040841;28;20029;-60
2022/03/03 01:31:18;;;;;;;23.08;15.70;;;;;;;;;;5043606;28;20067;-60
2022/03/03 01:33:44;;;;;;;24.95;16.90;;;;;;;;;;5038265;28;20025;-61
2022/03/03 01:36:09;;;;;;;22.17;16.60;;;;;;;;;;5023791;28;20490;-60
2022/03/03 01:38:34;;;;;;;23.80;17.25;;;;;;;;;;5044433;28;20226;-60
2022/03/03 01:40:59;;;;;;;23.20;16.13;;;;;;;;;;5043276;28;20280;-61
2022/03/03 01:43:25;;;;;;;21.90;16.17;;;;;;;;;;5039787;28;20024;-60
2022/03/03 01:45:50;;;;;;;23.00;17.52;;;;;;;;;;5042461;28;20024;-60
2022/03/03 01:48:15;;;;;;;22.00;16.70;;;;;;;;;;5022718;28;20153;-61
2022/03/03 01:50:41;;;;;;;25.52;17.45;;;;;;;;;;5040403;28;20053;-61
2022/03/03 01:53:07;;;;;;;23.70;15.85;;;;;;;;;;5024905;28;20125;-60
2022/03/03 01:55:32;;;;;;;23.58;16.75;;;;;;;;;;5043051;28;20104;-60
2022/03/03 01:57:58;;;;;;;25.00;17.80;;;;;;;;;;5037992;28;20119;-60
2022/03/03 02:00:24;;;;;;;25.20;17.20;;;;;;;;;;5043583;28;20020;-60
2022/03/03 02:02:49;;;;;;;24.00;16.92;;;;;;;;;;5042144;28;20048;-60
2022/03/03 02:05:14;;;;;;;23.55;17.10;;;;;;;;;;5036261;28;20029;-60
2022/03/03 02:07:40;;;;;;;23.45;16.83;;;;;;;;;;5043143;28;20251;-60
2022/03/03 02:10:05;;;;;;;24.80;17.60;;;;;;;;;;5022848;28;20139;-61
2022/03/03 02:12:31;;;;;;;23.70;17.52;;;;;;;;;;5041229;28;20013;-61
2022/03/03 02:14:56;;;;;;;25.27;17.70;;;;;;;;;;5041034;28;20119;-61
2022/03/03 02:17:22;;;;;;;23.92;17.20;;;;;;;;;;5040966;28;20024;-60
2022/03/03 02:19:47;;;;;;;22.73;16.17;;;;;;;;;;5034998;28;20553;-60
2022/03/03 02:22:12;;;;;;;22.23;15.88;;;;;;;;;;5041564;28;20467;-60
2022/03/03 02:24:38;;;;;;;24.95;17.27;;;;;;;;;;5042079;28;20514;-60
2022/03/03 02:27:04;;;;;;;23.60;17.95;;;;;;;;;;5038320;28;20503;-60
2022/03/03 02:29:29;;;;;;;24.45;17.00;;;;;;;;;;5041017;28;20025;-60
2022/03/03 02:31:55;;;;;;;23.67;17.55;;;;;;;;;;5041645;28;20017;-60
2022/03/03 02:34:20;;;;;;;24.25;16.40;;;;;;;;;;5041804;28;20047;-60
2022/03/03 02:36:46;;;;;;;22.88;16.67;;;;;;;;;;5021648;28;20044;-62
2022/03/03 02:39:12;;;;;;;21.92;16.63;;;;;;;;;;5026036;28;20662;-60
2022/03/03 02:41:38;;;;;;;23.10;16.63;;;;;;;;;;5040292;28;20127;-60
2022/03/03 02:44:04;;;;;;;22.13;16.08;;;;;;;;;;5042595;28;20147;-60
2022/03/03 02:46:29;;;;;;;20.55;16.33;;;;;;;;;;5042846;28;20395;-60
2022/03/03 02:48:55;;;;;;;24.45;15.88;;;;;;;;;;5039848;28;20025;-61
2022/03/03 02:51:21;;;;;;;20.90;15.85;;;;;;;;;;5038276;28;20044;-60
2022/03/03 02:53:47;;;;;;;23.08;17.10;;;;;;;;;;5041990;28;20043;-60
2022/03/03 02:56:13;;;;;;;22.40;16.23;;;;;;;;;;5022385;28;20041;-60
2022/03/03 02:58:39;;;;;;;22.92;16.25;;;;;;;;;;5024590;28;20135;-60
2022/03/03 03:01:05;;;;;;;21.50;15.60;;;;;;;;;;5041693;28;20029;-60
2022/03/03 03:03:30;;;;;;;23.73;17.08;;;;;;;;;;5040161;28;20321;-60
2022/03/03 03:05:55;;;;;;;23.60;17.35;;;;;;;;;;5039870;28;20032;-60
2022/03/03 03:08:20;;;;;;;22.08;17.23;;;;;;;;;;5042723;28;20032;-60
2022/03/03 03:10:46;;;;;;;23.98;17.27;;;;;;;;;;5043153;28;20020;-60
2022/03/03 03:13:14;;;;;;;24.13;16.88;;;;;;;;;;5037570;28;20114;-60
2022/03/03 03:15:41;;;;;;;23.85;16.98;;;;;;;;;;5043472;28;20373;-61
2022/03/03 03:18:12;;;;;;;22.38;16.63;;;;;;;;;;5038303;28;20442;-59
2022/03/03 03:20:39;;;;;;;31.65;17.42;;;;;;;;;;5040604;28;20017;-60
2022/03/03 03:23:04;;;;;;;25.73;17.92;;;;;;;;;;5044421;28;20028;-62
2022/03/03 03:25:29;;;;;;;23.95;16.88;;;;;;;;;;5047066;28;20013;-60
2022/03/03 03:27:55;;;;;;;24.95;16.15;;;;;;;;;;5043095;28;20431;-60
2022/03/03 03:30:20;;;;;;;23.98;17.65;;;;;;;;;;5043393;28;20503;-61
2022/03/03 03:32:45;;;;;;;25.00;16.50;;;;;;;;;;5045624;28;20095;-61
2022/03/03 03:35:11;;;;;;;23.65;16.52;;;;;;;;;;5021462;28;20033;-61
2022/03/03 03:37:36;;;;;;;23.77;17.65;;;;;;;;;;5045720;28;20080;-61
2022/03/03 03:40:03;;;;;;;24.77;17.35;;;;;;;;;;5041030;28;20037;-61
2022/03/03 03:42:28;;;;;;;26.40;17.33;;;;;;;;;;5042280;28;20025;-61
2022/03/03 03:44:53;;;;;;;28.42;17.70;;;;;;;;;;5043826;28;20044;-61
2022/03/03 03:47:19;;;;;;;25.65;18.40;;;;;;;;;;5043702;28;20512;-60
2022/03/03 03:49:44;;;;;;;23.58;17.73;;;;;;;;;;5041641;28;20105;-61
2022/03/03 03:52:09;;;;;;;25.25;17.98;;;;;;;;;;5043606;28;20098;-61
2022/03/03 03:54:34;;;;;;;24.20;17.35;;;;;;;;;;5044787;28;20025;-61
2022/03/03 03:57:00;;;;;;;24.23;17.20;;;;;;;;;;5040704;28;20398;-60
2022/03/03 03:59:25;;;;;;;23.70;16.90;;;;;;;;;;5045878;28;20398;-61
2022/03/03 04:01:51;;;;;;;23.58;17.10;;;;;;;;;;5046134;28;20025;-60
2022/03/03 04:04:16;;;;;;;24.58;17.67;;;;;;;;;;5041454;28;20025;-61
2022/03/03 04:06:42;;;;;;;23.15;18.27;;;;;;;;;;5043004;28;20017;-61
2022/03/03 04:09:07;;;;;;;24.50;17.25;;;;;;;;;;5044759;28;20374;-61
2022/03/03 04:11:32;;;;;;;27.70;18.52;;;;;;;;;;5042603;28;20029;-61
2022/03/03 04:13:58;;;;;;;22.55;16.52;;;;;;;;;;5044063;28;20179;-61
2022/03/03 04:16:23;;;;;;;24.67;17.67;;;;;;;;;;5044704;28;20017;-61
2022/03/03 04:18:49;;;;;;;24.42;18.77;;;;;;;;;;5041478;28;20033;-61
2022/03/03 04:21:14;;;;;;;25.30;18.25;;;;;;;;;;5040563;28;20457;-61
2022/03/03 04:23:39;;;;;;;26.67;18.35;;;;;;;;;;5045248;28;20338;-61
2022/03/03 04:26:05;;;;;;;23.77;17.67;;;;;;;;;;5043678;28;20108;-60
2022/03/03 04:28:30;;;;;;;25.02;17.40;;;;;;;;;;5042190;28;20075;-60
2022/03/03 04:30:55;;;;;;;25.90;17.92;;;;;;;;;;5044051;28;20104;-60
2022/03/03 04:33:21;;;;;;;25.67;17.67;;;;;;;;;;5023898;28;20156;-60
2022/03/03 04:35:46;;;;;;;25.15;17.90;;;;;;;;;;5043022;28;20431;-60
2022/03/03 04:38:12;;;;;;;22.75;17.23;;;;;;;;;;5042921;28;20068;-59
2022/03/03 04:40:37;;;;;;;23.33;17.10;;;;;;;;;;5044043;28;20317;-59
2022/03/03 04:43:02;;;;;;;24.90;18.38;;;;;;;;;;5041652;28;20021;-60
2022/03/03 04:45:28;;;;;;;22.65;17.38;;;;;;;;;;5043978;28;20021;-60
2022/03/03 04:47:54;;;;;;;25.42;17.60;;;;;;;;;;5043291;28;20021;-60
2022/03/03 04:50:20;;;;;;;24.23;17.23;;;;;;;;;;5038006;28;20166;-60
2022/03/03 04:52:45;;;;;;;21.98;17.08;;;;;;;;;;5043046;28;20050;-60
2022/03/03 04:55:10;;;;;;;26.20;18.23;;;;;;;;;;5041745;28;20025;-60
2022/03/03 04:57:36;;;;;;;25.35;18.55;;;;;;;;;;5047710;28;20025;-60
2022/03/03 05:00:01;;;;;;;24.25;17.85;;;;;;;;;;5043416;28;20123;-60
2022/03/03 05:02:27;;;;;;;24.20;17.73;;;;;;;;;;5043565;28;20028;-59
2022/03/03 05:04:52;;;;;;;25.00;17.90;;;;;;;;;;5040725;28;20145;-60
2022/03/03 05:07:19;;;;;;;27.45;18.25;;;;;;;;;;5042982;28;20349;-60
2022/03/03 05:09:44;;;;;;;24.13;18.20;;;;;;;;;;5042814;28;20523;-61
2022/03/03 05:12:10;;;;;;;25.45;17.83;;;;;;;;;;5039781;28;20020;-60
2022/03/03 05:14:35;;;;;;;26.55;18.73;;;;;;;;;;5043974;28;20104;-61
2022/03/03 05:17:01;;;;;;;28.45;19.27;;;;;;;;;;5042960;28;20468;-60
2022/03/03 05:19:27;;;;;;;27.00;18.38;;;;;;;;;;5039018;28;20499;-60
2022/03/03 05:21:52;;;;;;;25.90;19.20;;;;;;;;;;5041528;28;20116;-60
2022/03/03 05:24:18;;;;;;;26.70;18.70;;;;;;;;;;5042174;28;20883;-60
2022/03/03 05:26:43;;;;;;;26.40;17.80;;;;;;;;;;5038704;28;20028;-60
2022/03/03 05:29:08;;;;;;;30.40;17.85;;;;;;;;;;5040933;28;20201;-60
2022/03/03 05:31:34;;;;;;;25.25;18.98;;;;;;;;;;5041588;28;20483;-61
2022/03/03 05:33:59;;;;;;;29.40;19.30;;;;;;;;;;5042286;28;20384;-61
2022/03/03 05:36:25;;;;;;;26.85;19.02;;;;;;;;;;5022098;28;20029;-61
2022/03/03 05:38:52;;;;;;;26.17;19.67;;;;;;;;;;5044545;28;20032;-60
2022/03/03 05:41:17;;;;;;;25.92;18.73;;;;;;;;;;5040271;28;20271;-61
2022/03/03 05:43:42;;;;;;;27.83;18.95;;;;;;;;;;5042899;28;20021;-60
2022/03/03 05:46:08;;;;;;;26.88;18.70;;;;;;;;;;5041835;28;20082;-60
2022/03/03 05:48:33;;;;;;;26.27;19.38;;;;;;;;;;5042175;28;20484;-60
2022/03/03 05:51:00;;;;;;;26.95;18.88;;;;;;;;;;5041308;28;20021;-60
2022/03/03 05:53:25;;;;;;;27.65;19.30;;;;;;;;;;5024197;28;20029;-60
2022/03/03 05:55:53;;;;;;;29.83;20.15;;;;;;;;;;5043331;28;20028;-60
2022/03/03 05:58:19;;;;;;;27.10;19.83;;;;;;;;;;5039731;28;20424;-60
2022/03/03 06:00:45;;;;;;;27.33;18.88;;;;;;;;;;5044220;28;20110;-61
2022/03/03 06:03:16;;;;;;;26.98;19.48;;;;;;;;;;5041033;28;20059;-60
2022/03/03 06:05:44;;;;;;;30.98;20.00;;;;;;;;;;5041745;28;20624;-59
2022/03/03 06:08:15;;;;;;;32.03;19.95;;;;;;;;;;5041431;28;20087;-61
2022/03/03 06:10:44;;;;;;;31.08;19.60;;;;;;;;;;5024312;28;20419;-60
2022/03/03 06:13:23;;;;;;;32.38;20.88;;;;;;;;;;5039816;28;20328;-60
2022/03/03 06:15:48;;;;;;;33.20;19.55;;;;;;;;;;5043666;28;20013;-60
2022/03/03 06:18:14;;;;;;;29.77;20.60;;;;;;;;;;5039604;28;20356;-59
2022/03/03 06:20:43;;;;;;;27.90;19.08;;;;;;;;;;5041574;28;20079;-59
2022/03/03 06:23:08;;;;;;;29.80;19.17;;;;;;;;;;5041398;28;20033;-60
2022/03/03 06:25:34;;;;;;;29.48;20.25;;;;;;;;;;5043760;28;20491;-60
2022/03/03 06:27:59;;;;;;;27.77;20.05;;;;;;;;;;5041211;28;20484;-60
2022/03/03 06:30:25;;;;;;;31.48;20.58;;;;;;;;;;5044173;28;20028;-61
2022/03/03 06:32:50;;;;;;;29.23;19.80;;;;;;;;;;5043706;28;20115;-60
2022/03/03 06:35:16;;;;;;;29.42;19.70;;;;;;;;;;5021072;28;20032;-60
2022/03/03 06:37:41;;;;;;;27.00;18.52;;;;;;;;;;5043288;28;20056;-60
2022/03/03 06:40:07;;;;;;;28.55;20.05;;;;;;;;;;5041771;28;20087;-60
2022/03/03 06:42:32;;;;;;;27.15;19.95;;;;;;;;;;5023536;28;20033;-60
2022/03/03 06:44:58;;;;;;;30.13;18.85;;;;;;;;;;5025066;28;20353;-60
2022/03/03 06:47:23;;;;;;;27.67;19.63;;;;;;;;;;5040847;28;20575;-60
2022/03/03 06:49:49;;;;;;;28.73;19.95;;;;;;;;;;5039366;28;20032;-61
2022/03/03 06:52:16;;;;;;;27.60;19.48;;;;;;;;;;5039931;28;20025;-61
2022/03/03 06:54:43;;;;;;;26.92;19.83;;;;;;;;;;5043856;28;20028;-60
2022/03/03 06:57:09;;;;;;;27.27;19.92;;;;;;;;;;5041527;28;20112;-61
2022/03/03 06:59:34;;;;;;;28.55;21.00;;;;;;;;;;5024168;28;20025;-59
2022/03/03 07:02:00;;;;;;;28.75;20.30;;;;;;;;;;5042361;28;20025;-61
2022/03/03 07:04:32;;;;;;;26.65;19.02;;;;;;;;;;5038065;28;20035;-62
2022/03/03 07:06:58;;;;;;;32.00;20.05;;;;;;;;;;5043291;28;20017;-66
2022/03/03 07:09:23;;;;;;;28.42;21.02;;;;;;;;;;5043029;28;20025;-61
2022/03/03 07:11:49;;;;;;;30.20;20.08;;;;;;;;;;5041761;28;20379;-61
2022/03/03 07:14:15;;;;;;;29.95;21.42;;;;;;;;;;5039847;28;20071;-61
2022/03/03 07:16:54;;;;;;;29.60;20.23;;;;;;;;;;5040934;28;20261;-60
2022/03/03 07:19:29;;;;;;;28.52;18.98;;;;;;;;;;5038572;28;20135;-60
2022/03/03 07:22:11;;;;;;;27.02;21.13;;;;;;;;;;5060203;28;20096;-60
2022/03/03 07:24:40;;;;;;;29.63;20.48;;;;;;;;;;5060350;28;20048;-59
2022/03/03 07:27:08;;;;;;;27.52;19.67;;;;;;;;;;5061208;28;20025;-60
2022/03/03 07:29:34;;;;;;;27.23;20.38;;;;;;;;;;5058454;28;20111;-60
2022/03/03 07:32:04;;;;;;;31.45;20.00;;;;;;;;;;5060696;28;20195;-60
2022/03/03 07:34:33;;;;;;;27.25;20.65;;;;;;;;;;5055931;28;20511;-61
2022/03/03 07:37:04;;;;;;;29.25;21.15;;;;;;;;;;5059262;28;20241;-60
2022/03/03 07:39:34;;;;;;;29.23;21.38;;;;;;;;;;5058874;28;20139;-61
2022/03/03 07:41:59;;;;;;;32.05;21.63;;;;;;;;;;5050171;28;20101;-61
2022/03/03 07:44:24;;;;;;;29.77;20.25;;;;;;;;;;5039277;28;20458;-60
2022/03/03 07:46:50;;;;;;;33.47;22.23;;;;;;;;;;5043287;28;20397;-60
2022/03/03 07:49:19;;;;;;;30.40;21.10;;;;;;;;;;5037352;28;20025;-60
2022/03/03 07:51:45;;;;;;;26.63;21.08;;;;;;;;;;5038912;28;20017;-60
2022/03/03 07:54:11;;;;;;;30.50;21.45;;;;;;;;;;5043087;28;20466;-59
2022/03/03 07:56:40;;;;;;;30.30;21.75;;;;;;;;;;5022902;28;20424;-60
2022/03/03 07:59:09;;;;;;;29.58;21.75;;;;;;;;;;5044295;28;20029;-61
2022/03/03 08:01:35;;;;;;;28.65;21.10;;;;;;;;;;5040571;28;20028;-60
2022/03/03 08:04:01;;;;;;;32.47;21.25;;;;;;;;;;5041332;28;20559;-61
2022/03/03 08:06:27;;;;;;;33.08;21.05;;;;;;;;;;5038502;28;20450;-60
2022/03/03 08:08:55;;;;;;;30.40;22.05;;;;;;;;;;5046887;28;20504;-59
2022/03/03 08:11:22;;;;;;;28.50;20.52;;;;;;;;;;5041800;28;20083;-59
2022/03/03 08:13:51;;;;;;;28.90;21.92;;;;;;;;;;5046481;28;20025;-60
2022/03/03 08:16:17;;;;;;;28.77;21.05;;;;;;;;;;5044597;28;20037;-59
2022/03/03 08:18:42;;;;;;;28.27;20.85;;;;;;;;;;5044409;28;20395;-60
2022/03/03 08:21:08;;;;;;;25.73;20.73;;;;;;;;;;5042082;28;20120;-60
2022/03/03 08:23:33;;;;;;;28.48;22.63;;;;;;;;;;5042714;28;20020;-60
2022/03/03 08:25:59;;;;;;;28.10;20.70;;;;;;;;;;5045533;28;20136;-61
2022/03/03 08:28:25;;;;;;;26.17;19.95;;;;;;;;;;5051250;28;20093;-60
2022/03/03 08:30:59;;;;;;;28.88;21.88;;;;;;;;;;5065434;28;20368;-61
2022/03/03 08:33:34;;;;;;;28.48;21.70;;;;;;;;;;5061781;28;20025;-60
2022/03/03 08:36:00;;;;;;;28.45;20.63;;;;;;;;;;5062835;28;20448;-61
2022/03/03 08:38:33;;;;;;;28.42;20.50;;;;;;;;;;5062674;28;20048;-61
2022/03/03 08:40:59;;;;;;;25.88;20.63;;;;;;;;;;5064507;28;20031;-68
2022/03/03 08:43:26;;;;;;;28.08;20.67;;;;;;;;;;5060872;28;20024;-62
2022/03/03 08:45:51;;;;;;;28.77;21.85;;;;;;;;;;5061957;28;20021;-62
2022/03/03 08:48:19;;;;;;;30.15;21.52;;;;;;;;;;5059660;28;20526;-62
2022/03/03 08:50:45;;;;;;;29.55;22.83;;;;;;;;;;5060520;28;20036;-62
2022/03/03 08:53:11;;;;;;;29.65;21.92;;;;;;;;;;5053911;28;20134;-62
2022/03/03 08:55:38;;;;;;;31.15;23.10;;;;;;;;;;5023042;28;20031;-61
2022/03/03 08:58:04;;;;;;;30.58;22.20;;;;;;;;;;5043859;28;20039;-63
2022/03/03 09:00:30;;;;;;;29.05;22.92;;;;;;;;;;5048943;28;20394;-62
2022/03/03 09:02:56;;;;;;;29.13;21.65;;;;;;;;;;5064165;28;20017;-62
2022/03/03 09:05:21;;;;;;;27.65;21.17;;;;;;;;;;5058855;28;20021;-62
2022/03/03 09:07:47;;;;;;;27.42;22.55;;;;;;;;;;5061047;28;20127;-62
2022/03/03 09:10:14;;;;;;;31.60;22.00;;;;;;;;;;5062683;28;20025;-61
2022/03/03 09:12:39;;;;;;;27.77;20.60;;;;;;;;;;5060654;28;20478;-62
2022/03/03 09:15:06;;;;;;;28.27;21.90;;;;;;;;;;5063457;28;20032;-62
2022/03/03 09:17:31;;;;;;;26.00;19.88;;;;;;;;;;5043772;28;20020;-62
2022/03/03 09:19:57;;;;;;;24.60;19.63;;;;;;;;;;5058860;28;20382;-62
2022/03/03 09:22:22;;;;;;;25.90;18.92;;;;;;;;;;5061612;28;20027;-62
2022/03/03 09:24:47;;;;;;;23.48;18.10;;;;;;;;;;5061363;28;20427;-62
2022/03/03 09:27:12;;;;;;;25.85;18.35;;;;;;;;;;5052114;28;20039;-62
2022/03/03 09:29:38;;;;;;;24.58;17.77;;;;;;;;;;5041155;28;20033;-62
2022/03/03 09:32:04;;;;;;;24.63;18.45;;;;;;;;;;5041403;28;20036;-62
2022/03/03 09:34:30;;;;;;;22.27;16.60;;;;;;;;;;5037685;28;20124;-61
2022/03/03 09:36:55;;;;;;;23.15;16.80;;;;;;;;;;5055032;28;20087;-61
2022/03/03 09:39:21;;;;;;;20.42;16.85;;;;;;;;;;5042356;28;20479;-63
2022/03/03 09:41:47;;;;;;;21.83;16.65;;;;;;;;;;5022574;28;20025;-62
2022/03/03 09:44:13;;;;;;;22.27;16.67;;;;;;;;;;5044023;28;20360;-62
2022/03/03 09:46:39;;;;;;;23.23;17.02;;;;;;;;;;5061968;28;20387;-62
2022/03/03 09:49:04;;;;;;;21.85;16.42;;;;;;;;;;5061325;28;20032;-62
2022/03/03 09:51:30;;;;;;;19.38;16.65;;;;;;;;;;5042308;28;20119;-61
2022/03/03 09:53:55;;;;;;;19.88;16.58;;;;;;;;;;5060560;28;20020;-62
2022/03/03 09:56:21;;;;;;;21.08;17.08;;;;;;;;;;5060875;28;20021;-62
2022/03/03 09:58:47;;;;;;;20.48;17.20;;;;;;;;;;5041043;28;20071;-61
2022/03/03 10:01:13;;;;;;;23.55;17.70;;;;;;;;;;5042931;28;20024;-61
2022/03/03 10:03:38;;;;;;;22.95;17.52;;;;;;;;;;5039513;28;20033;-62
2022/03/03 10:06:03;;;;;;;21.02;16.67;;;;;;;;;;5042802;28;20025;-62
2022/03/03 10:08:29;;;;;;;21.35;16.52;;;;;;;;;;5039504;28;20093;-62
2022/03/03 10:10:58;;;;;;;20.02;17.60;;;;;;;;;;5041678;28;20043;-63
2022/03/03 10:13:24;;;;;;;23.00;17.95;;;;;;;;;;5038123;28;20043;-62
2022/03/03 10:15:51;;;;;;;21.02;17.23;;;;;;;;;;5043539;28;20477;-62
2022/03/03 10:18:17;;;;;;;21.63;16.63;;;;;;;;;;5042779;28;20021;-62
2022/03/03 10:20:50;;;;;;;18.58;16.23;;;;;;;;;;5024007;28;20044;-61
2022/03/03 10:23:16;;;;;;;21.35;16.35;;;;;;;;;;5040432;28;20333;-61
2022/03/03 10:25:43;;;;;;;19.80;16.25;;;;;;;;;;5039764;28;20200;-61
2022/03/03 10:28:08;;;;;;;18.35;15.30;;;;;;;;;;5037883;28;20387;-60
2022/03/03 10:30:45;;;;;;;18.70;16.67;;;;;;;;;;5039839;28;20013;-62
2022/03/03 10:33:15;;;;;;;20.77;16.67;;;;;;;;;;5039962;28;20057;-61
2022/03/03 10:35:40;;;;;;;20.17;15.73;;;;;;;;;;5038822;28;20283;-62
2022/03/03 10:38:05;;;;;;;19.30;15.98;;;;;;;;;;5040837;28;20057;-62
2022/03/03 10:40:31;;;;;;;17.75;14.60;;;;;;;;;;5039390;28;20025;-63
2022/03/03 10:42:56;;;;;;;18.50;15.35;;;;;;;;;;5038624;28;20280;-63
2022/03/03 10:45:22;;;;;;;19.17;16.27;;;;;;;;;;5041327;28;20059;-62
2022/03/03 10:48:04;;;;;;;19.42;15.23;;;;;;;;;;5039080;28;20135;-62
2022/03/03 10:50:45;;;;;;;18.77;15.25;;;;;;;;;;5036991;28;20017;-62
2022/03/03 10:53:10;;;;;;;20.25;16.08;;;;;;;;;;5042557;28;20029;-63
2022/03/03 10:55:36;;;;;;;19.58;15.88;;;;;;;;;;5040409;28;20017;-61
2022/03/03 10:58:02;;;;;;;17.27;14.50;;;;;;;;;;5039574;28;20076;-61
2022/03/03 11:00:29;;;;;;;21.08;15.68;;;;;;;;;;5038894;28;20115;-61
2022/03/03 11:03:01;;;;;;;19.70;15.30;;;;;;;;;;5041493;28;20036;-62
2022/03/03 11:05:28;;;;;;;19.88;15.20;;;;;;;;;;5037602;28;20029;-63
2022/03/03 11:07:54;;;;;;;16.77;14.40;;;;;;;;;;5041541;28;20384;-62
2022/03/03 11:10:24;;;;;;;16.92;14.32;;;;;;;;;;5041898;28;20416;-62
2022/03/03 11:12:50;;;;;;;17.45;14.13;;;;;;;;;;5037967;28;20018;-62
2022/03/03 11:15:16;;;;;;;16.42;14.10;;;;;;;;;;5039390;28;20013;-62
2022/03/03 11:17:42;;;;;;;17.70;14.52;;;;;;;;;;5039639;28;20025;-62
2022/03/03 11:20:09;;;;;;;18.05;14.98;;;;;;;;;;5037895;28;20382;-62
2022/03/03 11:22:35;;;;;;;17.83;14.25;;;;;;;;;;5044478;28;20115;-62
2022/03/03 11:25:06;;;;;;;16.83;13.95;;;;;;;;;;5047443;28;20028;-63
2022/03/03 11:27:32;;;;;;;16.55;13.48;;;;;;;;;;5038629;28;20448;-62
2022/03/03 11:30:16;;;;;;;20.25;14.52;;;;;;;;;;5040696;28;20021;-62
2022/03/03 11:32:42;;;;;;;17.42;14.85;;;;;;;;;;5040077;28;20017;-62
2022/03/03 11:35:08;;;;;;;16.88;14.38;;;;;;;;;;5039277;28;20045;-62
2022/03/03 11:37:46;;;;;;;17.75;14.05;;;;;;;;;;5045767;28;20087;-62
2022/03/03 11:40:16;;;;;;;18.38;14.05;;;;;;;;;;5043905;28;20514;-62
2022/03/03 11:42:49;;;;;;;16.48;14.13;;;;;;;;;;5040847;28;20391;-62
2022/03/03 11:45:17;;;;;;;17.77;15.00;;;;;;;;;;5046336;28;20039;-61
2022/03/03 11:47:47;;;;;;;16.33;14.25;;;;;;;;;;5045024;28;20013;-61
2022/03/03 11:50:17;;;;;;;17.30;14.77;;;;;;;;;;5043719;28;20037;-62
2022/03/03 11:52:43;;;;;;;16.50;14.45;;;;;;;;;;5044562;28;20094;-62
2022/03/03 11:55:47;;;;;;;17.83;14.25;;;;;;;;;;5044936;28;20114;-61
2022/03/03 11:58:12;;;;;;;17.05;14.90;;;;;;;;;;5021619;28;20115;-62
2022/03/03 12:00:42;;;;;;;18.40;14.70;;;;;;;;;;5022273;28;20503;-62
2022/03/03 12:03:09;;;;;;;18.40;14.32;;;;;;;;;;5032186;28;20064;-61
2022/03/03 12:05:35;;;;;;;18.13;14.05;;;;;;;;;;5043312;28;20079;-62
2022/03/03 12:08:16;;;;;;;18.58;15.38;;;;;;;;;;5047275;28;20020;-61
2022/03/03 12:11:15;;;;;;;17.15;14.55;;;;;;;;;;5044628;28;20032;-62
2022/03/03 12:13:40;;;;;;;17.45;14.75;;;;;;;;;;5019625;28;20328;-62
2022/03/03 12:16:14;;;;;;;15.52;13.88;;;;;;;;;;5045349;28;20082;-62
2022/03/03 12:18:40;;;;;;;14.60;13.10;;;;;;;;;;5042505;28;20456;-62
2022/03/03 12:21:24;;;;;;;16.30;13.60;;;;;;;;;;5045657;28;20052;-62
2022/03/03 12:23:49;;;;;;;17.08;14.43;;;;;;;;;;5045137;28;20135;-62
2022/03/03 12:26:15;;;;;;;16.33;13.93;;;;;;;;;;5044272;28;20040;-62
2022/03/03 12:28:45;;;;;;;16.25;14.07;;;;;;;;;;5042593;28;20638;-64
2022/03/03 12:31:19;;;;;;;15.07;13.45;;;;;;;;;;5044775;28;20051;-62
2022/03/03 12:34:01;;;;;;;15.88;14.25;;;;;;;;;;5043256;28;20380;-62
2022/03/03 12:36:26;;;;;;;16.20;14.13;;;;;;;;;;5062969;28;20016;-62
2022/03/03 12:38:52;;;;;;;16.45;13.43;;;;;;;;;;5064100;28;20223;-62
2022/03/03 12:41:21;;;;;;;15.38;13.50;;;;;;;;;;5061684;28;20489;-62
2022/03/03 12:43:46;;;;;;;18.42;14.40;;;;;;;;;;5064684;28;20021;-62
2022/03/03 12:46:11;;;;;;;17.52;13.82;;;;;;;;;;5062662;28;20075;-63
2022/03/03 12:48:37;;;;;;;17.85;13.95;;;;;;;;;;5057197;28;20081;-61
2022/03/03 12:51:03;;;;;;;14.70;13.18;;;;;;;;;;5063507;28;20466;-61
2022/03/03 12:53:35;;;;;;;16.17;14.00;;;;;;;;;;5062831;28;20029;-62
2022/03/03 12:56:00;;;;;;;16.70;14.77;;;;;;;;;;5061650;28;20013;-62
2022/03/03 12:58:29;;;;;;;16.13;14.18;;;;;;;;;;5061201;28;20020;-63
2022/03/03 13:00:55;;;;;;;15.15;12.88;;;;;;;;;;5060244;28;20028;-62
2022/03/03 13:03:20;;;;;;;18.02;14.13;;;;;;;;;;5061859;28;20048;-61
2022/03/03 13:05:47;;;;;;;16.60;13.95;;;;;;;;;;5060591;28;20024;-62
2022/03/03 13:08:28;;;;;;;15.05;13.55;;;;;;;;;;5062710;28;20025;-62
2022/03/03 13:10:58;;;;;;;16.40;13.45;;;;;;;;;;5062417;28;20086;-62
2022/03/03 13:13:23;;;;;;;15.68;14.00;;;;;;;;;;5062254;28;20267;-61
2022/03/03 13:15:49;;;;;;;15.35;13.75;;;;;;;;;;5061988;28;20066;-61
2022/03/03 13:18:23;;;;;;;14.30;12.63;;;;;;;;;;5060920;28;20108;-62
2022/03/03 13:20:56;;;;;;;15.48;13.88;;;;;;;;;;5060063;28;20432;-62
2022/03/03 13:23:21;;;;;;;;;;;;;;;;;;5062652;28;20059;-62
2022/03/03 13:26:01;;;;;;;15.00;12.67;;;;;;;;;;5040021;28;20316;-61
2022/03/03 13:28:27;;;;;;;19.15;13.48;;;;;;;;;;5039875;28;20262;-61
2022/03/03 13:30:52;;;;;;;15.25;13.63;;;;;;;;;;5040940;28;20024;-61
2022/03/03 13:33:17;;;;;;;15.40;13.63;;;;;;;;;;5039618;28;20029;-62
2022/03/03 13:35:43;;;;;;;14.65;13.13;;;;;;;;;;5040782;28;20102;-62
2022/03/03 13:38:08;;;;;;;15.95;13.45;;;;;;;;;;5042583;28;20523;-62
2022/03/03 13:40:36;;;;;;;17.08;14.07;;;;;;;;;;5041909;28;20031;-61
2022/03/03 13:43:01;;;;;;;16.48;14.48;;;;;;;;;;5037600;28;20033;-62
2022/03/03 13:45:36;;;;;;;15.07;13.45;;;;;;;;;;5042530;28;20028;-62
2022/03/03 13:48:09;;;;;;;15.18;13.45;;;;;;;;;;5038747;28;20024;-62
2022/03/03 13:50:53;;;;;;;15.18;13.57;;;;;;;;;;5041307;28;20078;-62
2022/03/03 13:53:23;;;;;;;14.50;13.02;;;;;;;;;;5042022;28;20515;-63
2022/03/03 13:55:54;;;;;;;16.27;14.13;;;;;;;;;;5041249;28;20028;-62
2022/03/03 13:58:21;;;;;;;16.23;13.73;;;;;;;;;;5041068;28;20705;-62
2022/03/03 14:00:46;;;;;;;16.60;13.82;;;;;;;;;;5042170;28;20025;-61
2022/03/03 14:03:12;;;;;;;14.82;13.18;;;;;;;;;;5039948;28;20035;-62
2022/03/03 14:05:41;;;;;;;13.93;12.52;;;;;;;;;;5040279;28;20075;-62
2022/03/03 14:08:19;;;;;;;14.35;12.88;;;;;;;;;;5042340;28;20105;-61
2022/03/03 14:10:49;;;;;;;15.25;13.38;;;;;;;;;;5040039;28;20013;-60
2022/03/03 14:13:16;;;;;;;17.27;14.45;;;;;;;;;;5041467;28;20500;-61
2022/03/03 14:15:41;;;;;;;15.50;13.90;;;;;;;;;;5039305;28;20518;-62
2022/03/03 14:18:07;;;;;;;15.07;13.68;;;;;;;;;;5039548;28;20053;-62